sensor_id;sensor_type;location;lat;lon;timestamp;P1;durP1;ratioP1;P2;durP2;ratioP2
5167;SDS011;2603;48.918;8.980;2022-09-03T00:00:44;7.33;;;1.40;;
5167;SDS011;2603;48.918;8.980;2022-09-03T00:03:12;9.03;;;1.60;;
5167;SDS011;2603;48.918;8.980;2022-09-03T00:05:44;4.63;;;1.63;;
5167;SDS011;2603;48.918;8.980;2022-09-03T00:08:15;3.30;;;1.73;;
5167;SDS011;2603;48.918;8.980;2022-09-03T00:10:48;4.40;;;1.40;;
5167;SDS011;2603;48.918;8.980;2022-09-03T00:13:19;6.47;;;2.17;;
5167;SDS011;2603;48.918;8.980;2022-09-03T00:15:49;5.73;;;1.87;;
5167;SDS011;2603;48.918;8.980;2022-09-03T00:18:18;2.70;;;1.47;;
5167;SDS011;2603;48.918;8.980;2022-09-03T00:20:48;5.03;;;1.83;;
5167;SDS011;2603;48.918;8.980;2022-09-03T00:23:18;3.63;;;1.67;;
5167;SDS011;2603;48.918;8.980;2022-09-03T00:25:48;4.30;;;1.90;;
5167;SDS011;2603;48.918;8.980;2022-09-03T00:28:19;2.20;;;1.70;;
5167;SDS011;2603;48.918;8.980;2022-09-03T00:30:50;3.13;;;1.43;;
5167;SDS011;2603;48.918;8.980;2022-09-03T00:33:22;5.70;;;1.70;;
5167;SDS011;2603;48.918;8.980;2022-09-03T00:35:53;4.97;;;1.83;;
5167;SDS011;2603;48.918;8.980;2022-09-03T00:38:28;6.37;;;1.60;;
5167;SDS011;2603;48.918;8.980;2022-09-03T00:40:58;6.30;;;3.60;;
5167;SDS011;2603;48.918;8.980;2022-09-03T00:43:36;11.43;;;2.37;;
5167;SDS011;2603;48.918;8.980;2022-09-03T00:46:13;2.80;;;1.87;;
5167;SDS011;2603;48.918;8.980;2022-09-03T00:48:47;5.67;;;2.80;;
5167;SDS011;2603;48.918;8.980;2022-09-03T00:51:23;5.70;;;2.67;;
5167;SDS011;2603;48.918;8.980;2022-09-03T00:53:56;6.43;;;2.00;;
5167;SDS011;2603;48.918;8.980;2022-09-03T00:56:29;4.33;;;1.80;;
5167;SDS011;2603;48.918;8.980;2022-09-03T00:59:05;14.37;;;1.97;;
5167;SDS011;2603;48.918;8.980;2022-09-03T01:01:42;3.70;;;2.17;;
5167;SDS011;2603;48.918;8.980;2022-09-03T01:04:17;2.90;;;1.50;;
5167;SDS011;2603;48.918;8.980;2022-09-03T01:06:53;2.50;;;1.53;;
5167;SDS011;2603;48.918;8.980;2022-09-03T01:09:30;5.67;;;1.90;;
5167;SDS011;2603;48.918;8.980;2022-09-03T01:12:06;2.20;;;1.40;;
5167;SDS011;2603;48.918;8.980;2022-09-03T01:14:44;5.03;;;1.97;;
5167;SDS011;2603;48.918;8.980;2022-09-03T01:17:20;5.27;;;1.67;;
5167;SDS011;2603;48.918;8.980;2022-09-03T01:20:01;3.03;;;1.90;;
5167;SDS011;2603;48.918;8.980;2022-09-03T01:22:46;3.33;;;1.77;;
5167;SDS011;2603;48.918;8.980;2022-09-03T01:25:37;5.67;;;1.60;;
5167;SDS011;2603;48.918;8.980;2022-09-03T01:28:35;4.37;;;1.50;;
5167;SDS011;2603;48.918;8.980;2022-09-03T01:31:11;2.77;;;1.37;;
5167;SDS011;2603;48.918;8.980;2022-09-03T01:33:47;3.40;;;1.70;;
5167;SDS011;2603;48.918;8.980;2022-09-03T01:36:20;3.23;;;1.80;;
5167;SDS011;2603;48.918;8.980;2022-09-03T01:38:51;3.37;;;1.50;;
5167;SDS011;2603;48.918;8.980;2022-09-03T01:41:24;4.07;;;1.57;;
5167;SDS011;2603;48.918;8.980;2022-09-03T01:44:16;2.57;;;1.10;;
5167;SDS011;2603;48.918;8.980;2022-09-03T01:46:49;3.30;;;1.70;;
5167;SDS011;2603;48.918;8.980;2022-09-03T01:49:22;2.43;;;1.30;;
5167;SDS011;2603;48.918;8.980;2022-09-03T01:51:50;2.50;;;1.30;;
5167;SDS011;2603;48.918;8.980;2022-09-03T01:54:24;4.73;;;1.50;;
5167;SDS011;2603;48.918;8.980;2022-09-03T01:57:09;2.40;;;1.23;;
5167;SDS011;2603;48.918;8.980;2022-09-03T01:59:47;1.63;;;1.27;;
5167;SDS011;2603;48.918;8.980;2022-09-03T02:02:17;5.20;;;1.50;;
5167;SDS011;2603;48.918;8.980;2022-09-03T02:04:54;4.40;;;1.70;;
5167;SDS011;2603;48.918;8.980;2022-09-03T02:07:23;5.20;;;1.40;;
5167;SDS011;2603;48.918;8.980;2022-09-03T02:09:51;3.33;;;1.40;;
5167;SDS011;2603;48.918;8.980;2022-09-03T02:12:18;9.10;;;1.47;;
5167;SDS011;2603;48.918;8.980;2022-09-03T02:14:47;2.73;;;1.43;;
5167;SDS011;2603;48.918;8.980;2022-09-03T02:17:13;6.63;;;2.00;;
5167;SDS011;2603;48.918;8.980;2022-09-03T02:19:40;7.23;;;1.43;;
5167;SDS011;2603;48.918;8.980;2022-09-03T02:22:07;4.43;;;1.73;;
5167;SDS011;2603;48.918;8.980;2022-09-03T02:24:33;7.13;;;1.80;;
5167;SDS011;2603;48.918;8.980;2022-09-03T02:27:00;2.40;;;1.50;;
5167;SDS011;2603;48.918;8.980;2022-09-03T02:29:27;2.67;;;1.30;;
5167;SDS011;2603;48.918;8.980;2022-09-03T02:31:55;7.20;;;1.90;;
5167;SDS011;2603;48.918;8.980;2022-09-03T02:34:23;3.13;;;1.57;;
5167;SDS011;2603;48.918;8.980;2022-09-03T02:36:50;1.90;;;1.43;;
5167;SDS011;2603;48.918;8.980;2022-09-03T02:39:17;4.50;;;2.00;;
5167;SDS011;2603;48.918;8.980;2022-09-03T02:41:43;6.20;;;2.03;;
5167;SDS011;2603;48.918;8.980;2022-09-03T02:44:11;7.47;;;1.97;;
5167;SDS011;2603;48.918;8.980;2022-09-03T02:46:42;5.33;;;3.00;;
5167;SDS011;2603;48.918;8.980;2022-09-03T02:49:11;2.70;;;1.73;;
5167;SDS011;2603;48.918;8.980;2022-09-03T02:51:39;2.80;;;1.73;;
5167;SDS011;2603;48.918;8.980;2022-09-03T02:54:07;3.13;;;1.90;;
5167;SDS011;2603;48.918;8.980;2022-09-03T02:56:35;2.67;;;1.80;;
5167;SDS011;2603;48.918;8.980;2022-09-03T02:59:02;2.23;;;1.70;;
5167;SDS011;2603;48.918;8.980;2022-09-03T03:01:29;2.20;;;1.40;;
5167;SDS011;2603;48.918;8.980;2022-09-03T03:03:56;3.17;;;1.67;;
5167;SDS011;2603;48.918;8.980;2022-09-03T03:06:24;4.90;;;1.90;;
5167;SDS011;2603;48.918;8.980;2022-09-03T03:08:51;6.07;;;2.10;;
5167;SDS011;2603;48.918;8.980;2022-09-03T03:11:20;2.40;;;1.63;;
5167;SDS011;2603;48.918;8.980;2022-09-03T03:13:47;2.90;;;1.50;;
5167;SDS011;2603;48.918;8.980;2022-09-03T03:16:14;3.50;;;1.63;;
5167;SDS011;2603;48.918;8.980;2022-09-03T03:18:41;4.07;;;2.30;;
5167;SDS011;2603;48.918;8.980;2022-09-03T03:21:10;4.43;;;2.20;;
5167;SDS011;2603;48.918;8.980;2022-09-03T03:23:40;2.53;;;1.80;;
5167;SDS011;2603;48.918;8.980;2022-09-03T03:26:07;4.57;;;1.70;;
5167;SDS011;2603;48.918;8.980;2022-09-03T03:28:35;5.30;;;1.90;;
5167;SDS011;2603;48.918;8.980;2022-09-03T03:31:05;4.37;;;1.53;;
5167;SDS011;2603;48.918;8.980;2022-09-03T03:33:32;2.40;;;1.53;;
5167;SDS011;2603;48.918;8.980;2022-09-03T03:36:02;5.97;;;1.60;;
5167;SDS011;2603;48.918;8.980;2022-09-03T03:38:29;5.67;;;2.20;;
5167;SDS011;2603;48.918;8.980;2022-09-03T03:40:57;3.00;;;1.90;;
5167;SDS011;2603;48.918;8.980;2022-09-03T03:43:24;5.30;;;1.70;;
5167;SDS011;2603;48.918;8.980;2022-09-03T03:45:55;4.03;;;2.30;;
5167;SDS011;2603;48.918;8.980;2022-09-03T03:48:22;4.43;;;1.77;;
5167;SDS011;2603;48.918;8.980;2022-09-03T03:50:49;2.80;;;1.67;;
5167;SDS011;2603;48.918;8.980;2022-09-03T03:53:15;3.07;;;1.83;;
5167;SDS011;2603;48.918;8.980;2022-09-03T03:55:42;6.90;;;1.80;;
5167;SDS011;2603;48.918;8.980;2022-09-03T03:58:10;2.77;;;1.77;;
5167;SDS011;2603;48.918;8.980;2022-09-03T04:00:37;3.00;;;1.70;;
5167;SDS011;2603;48.918;8.980;2022-09-03T04:03:03;2.73;;;1.70;;
5167;SDS011;2603;48.918;8.980;2022-09-03T04:05:30;4.60;;;1.73;;
5167;SDS011;2603;48.918;8.980;2022-09-03T04:07:59;3.63;;;1.93;;
5167;SDS011;2603;48.918;8.980;2022-09-03T04:10:26;3.87;;;1.70;;
5167;SDS011;2603;48.918;8.980;2022-09-03T04:12:53;2.07;;;1.20;;
5167;SDS011;2603;48.918;8.980;2022-09-03T04:15:21;3.70;;;1.53;;
5167;SDS011;2603;48.918;8.980;2022-09-03T04:17:48;4.60;;;2.17;;
5167;SDS011;2603;48.918;8.980;2022-09-03T04:20:14;3.53;;;2.00;;
5167;SDS011;2603;48.918;8.980;2022-09-03T04:22:41;12.33;;;1.80;;
5167;SDS011;2603;48.918;8.980;2022-09-03T04:25:08;3.20;;;1.60;;
5167;SDS011;2603;48.918;8.980;2022-09-03T04:27:34;7.90;;;2.00;;
5167;SDS011;2603;48.918;8.980;2022-09-03T04:30:01;2.90;;;1.63;;
5167;SDS011;2603;48.918;8.980;2022-09-03T04:32:29;3.30;;;1.80;;
5167;SDS011;2603;48.918;8.980;2022-09-03T04:35:14;2.10;;;1.40;;
5167;SDS011;2603;48.918;8.980;2022-09-03T04:37:40;3.23;;;1.90;;
5167;SDS011;2603;48.918;8.980;2022-09-03T04:40:07;4.63;;;1.87;;
5167;SDS011;2603;48.918;8.980;2022-09-03T04:42:34;2.83;;;1.70;;
5167;SDS011;2603;48.918;8.980;2022-09-03T04:45:01;3.73;;;1.60;;
5167;SDS011;2603;48.918;8.980;2022-09-03T04:47:27;3.03;;;2.43;;
5167;SDS011;2603;48.918;8.980;2022-09-03T04:49:55;3.77;;;1.53;;
5167;SDS011;2603;48.918;8.980;2022-09-03T04:52:23;6.10;;;2.57;;
5167;SDS011;2603;48.918;8.980;2022-09-03T04:54:54;5.50;;;1.80;;
5167;SDS011;2603;48.918;8.980;2022-09-03T04:57:20;3.63;;;1.70;;
5167;SDS011;2603;48.918;8.980;2022-09-03T04:59:47;5.10;;;2.27;;
5167;SDS011;2603;48.918;8.980;2022-09-03T05:02:14;3.30;;;2.10;;
5167;SDS011;2603;48.918;8.980;2022-09-03T05:04:40;10.13;;;2.03;;
5167;SDS011;2603;48.918;8.980;2022-09-03T05:07:08;3.23;;;2.00;;
5167;SDS011;2603;48.918;8.980;2022-09-03T05:09:35;2.70;;;2.00;;
5167;SDS011;2603;48.918;8.980;2022-09-03T05:12:02;8.57;;;2.07;;
5167;SDS011;2603;48.918;8.980;2022-09-03T05:14:29;2.17;;;1.57;;
5167;SDS011;2603;48.918;8.980;2022-09-03T05:16:55;11.33;;;1.70;;
5167;SDS011;2603;48.918;8.980;2022-09-03T05:19:22;3.17;;;1.90;;
5167;SDS011;2603;48.918;8.980;2022-09-03T05:21:49;3.00;;;1.77;;
5167;SDS011;2603;48.918;8.980;2022-09-03T05:24:17;4.87;;;1.80;;
5167;SDS011;2603;48.918;8.980;2022-09-03T05:26:43;3.40;;;1.73;;
5167;SDS011;2603;48.918;8.980;2022-09-03T05:29:10;6.20;;;1.77;;
5167;SDS011;2603;48.918;8.980;2022-09-03T05:31:37;3.10;;;2.27;;
5167;SDS011;2603;48.918;8.980;2022-09-03T05:34:04;2.63;;;1.77;;
5167;SDS011;2603;48.918;8.980;2022-09-03T05:36:32;3.30;;;2.20;;
5167;SDS011;2603;48.918;8.980;2022-09-03T05:38:59;7.33;;;1.80;;
5167;SDS011;2603;48.918;8.980;2022-09-03T05:41:28;2.97;;;1.90;;
5167;SDS011;2603;48.918;8.980;2022-09-03T05:43:57;4.93;;;1.60;;
5167;SDS011;2603;48.918;8.980;2022-09-03T05:46:25;3.43;;;1.80;;
5167;SDS011;2603;48.918;8.980;2022-09-03T05:48:55;3.07;;;1.70;;
5167;SDS011;2603;48.918;8.980;2022-09-03T05:51:22;4.33;;;1.67;;
5167;SDS011;2603;48.918;8.980;2022-09-03T05:53:49;3.10;;;1.80;;
5167;SDS011;2603;48.918;8.980;2022-09-03T05:56:18;2.73;;;1.50;;
5167;SDS011;2603;48.918;8.980;2022-09-03T05:58:48;5.77;;;1.77;;
5167;SDS011;2603;48.918;8.980;2022-09-03T06:01:17;2.53;;;1.60;;
5167;SDS011;2603;48.918;8.980;2022-09-03T06:03:45;6.27;;;1.57;;
5167;SDS011;2603;48.918;8.980;2022-09-03T06:06:13;3.77;;;1.63;;
5167;SDS011;2603;48.918;8.980;2022-09-03T06:08:40;4.27;;;1.80;;
5167;SDS011;2603;48.918;8.980;2022-09-03T06:11:09;4.60;;;2.60;;
5167;SDS011;2603;48.918;8.980;2022-09-03T06:13:36;2.87;;;1.70;;
5167;SDS011;2603;48.918;8.980;2022-09-03T06:16:05;5.13;;;1.70;;
5167;SDS011;2603;48.918;8.980;2022-09-03T06:18:32;4.73;;;1.73;;
5167;SDS011;2603;48.918;8.980;2022-09-03T06:20:59;2.80;;;1.73;;
5167;SDS011;2603;48.918;8.980;2022-09-03T06:23:27;2.73;;;1.60;;
5167;SDS011;2603;48.918;8.980;2022-09-03T06:26:04;4.70;;;1.50;;
5167;SDS011;2603;48.918;8.980;2022-09-03T06:28:32;4.87;;;1.40;;
5167;SDS011;2603;48.918;8.980;2022-09-03T06:31:00;3.87;;;1.50;;
5167;SDS011;2603;48.918;8.980;2022-09-03T06:33:28;3.07;;;1.73;;
5167;SDS011;2603;48.918;8.980;2022-09-03T06:35:56;18.93;;;2.00;;
5167;SDS011;2603;48.918;8.980;2022-09-03T06:38:23;4.00;;;1.87;;
5167;SDS011;2603;48.918;8.980;2022-09-03T06:40:51;3.83;;;1.40;;
5167;SDS011;2603;48.918;8.980;2022-09-03T06:43:19;4.03;;;2.00;;
5167;SDS011;2603;48.918;8.980;2022-09-03T06:45:52;7.73;;;1.50;;
5167;SDS011;2603;48.918;8.980;2022-09-03T06:48:20;18.27;;;1.70;;
5167;SDS011;2603;48.918;8.980;2022-09-03T06:50:53;3.17;;;1.50;;
5167;SDS011;2603;48.918;8.980;2022-09-03T06:53:21;6.03;;;2.03;;
5167;SDS011;2603;48.918;8.980;2022-09-03T06:55:51;5.47;;;1.40;;
5167;SDS011;2603;48.918;8.980;2022-09-03T06:58:19;4.93;;;1.93;;
5167;SDS011;2603;48.918;8.980;2022-09-03T07:00:46;3.20;;;1.57;;
5167;SDS011;2603;48.918;8.980;2022-09-03T07:03:13;4.10;;;1.90;;
5167;SDS011;2603;48.918;8.980;2022-09-03T07:05:41;5.10;;;2.20;;
5167;SDS011;2603;48.918;8.980;2022-09-03T07:08:10;3.50;;;1.90;;
5167;SDS011;2603;48.918;8.980;2022-09-03T07:10:36;5.37;;;1.80;;
5167;SDS011;2603;48.918;8.980;2022-09-03T07:13:03;4.23;;;1.60;;
5167;SDS011;2603;48.918;8.980;2022-09-03T07:15:30;2.43;;;1.47;;
5167;SDS011;2603;48.918;8.980;2022-09-03T07:17:57;8.23;;;2.20;;
5167;SDS011;2603;48.918;8.980;2022-09-03T07:20:24;3.80;;;2.00;;
5167;SDS011;2603;48.918;8.980;2022-09-03T07:22:53;2.80;;;1.63;;
5167;SDS011;2603;48.918;8.980;2022-09-03T07:25:22;5.30;;;1.97;;
5167;SDS011;2603;48.918;8.980;2022-09-03T07:27:49;3.60;;;1.73;;
5167;SDS011;2603;48.918;8.980;2022-09-03T07:30:15;4.57;;;1.90;;
5167;SDS011;2603;48.918;8.980;2022-09-03T07:32:43;7.47;;;1.63;;
5167;SDS011;2603;48.918;8.980;2022-09-03T07:35:10;9.07;;;2.20;;
5167;SDS011;2603;48.918;8.980;2022-09-03T07:37:39;3.93;;;1.63;;
5167;SDS011;2603;48.918;8.980;2022-09-03T07:40:09;4.50;;;2.23;;
5167;SDS011;2603;48.918;8.980;2022-09-03T07:42:37;5.40;;;1.53;;
5167;SDS011;2603;48.918;8.980;2022-09-03T07:45:05;10.60;;;2.40;;
5167;SDS011;2603;48.918;8.980;2022-09-03T07:47:35;5.67;;;2.17;;
5167;SDS011;2603;48.918;8.980;2022-09-03T07:50:02;3.20;;;1.90;;
5167;SDS011;2603;48.918;8.980;2022-09-03T07:52:29;6.27;;;1.77;;
5167;SDS011;2603;48.918;8.980;2022-09-03T07:54:56;3.73;;;2.23;;
5167;SDS011;2603;48.918;8.980;2022-09-03T07:57:23;11.00;;;2.37;;
5167;SDS011;2603;48.918;8.980;2022-09-03T07:59:51;3.17;;;1.90;;
5167;SDS011;2603;48.918;8.980;2022-09-03T08:02:18;4.93;;;2.13;;
5167;SDS011;2603;48.918;8.980;2022-09-03T08:04:45;4.27;;;2.13;;
5167;SDS011;2603;48.918;8.980;2022-09-03T08:07:11;5.10;;;2.10;;
5167;SDS011;2603;48.918;8.980;2022-09-03T08:09:38;9.87;;;2.60;;
5167;SDS011;2603;48.918;8.980;2022-09-03T08:12:05;2.83;;;1.97;;
5167;SDS011;2603;48.918;8.980;2022-09-03T08:14:31;3.23;;;2.23;;
5167;SDS011;2603;48.918;8.980;2022-09-03T08:16:59;7.50;;;2.10;;
5167;SDS011;2603;48.918;8.980;2022-09-03T08:19:26;3.43;;;2.27;;
5167;SDS011;2603;48.918;8.980;2022-09-03T08:21:53;4.07;;;2.00;;
5167;SDS011;2603;48.918;8.980;2022-09-03T08:24:19;8.97;;;2.63;;
5167;SDS011;2603;48.918;8.980;2022-09-03T08:26:48;11.43;;;2.30;;
5167;SDS011;2603;48.918;8.980;2022-09-03T08:29:15;11.17;;;2.27;;
5167;SDS011;2603;48.918;8.980;2022-09-03T08:31:42;3.60;;;2.23;;
5167;SDS011;2603;48.918;8.980;2022-09-03T08:34:10;3.17;;;2.13;;
5167;SDS011;2603;48.918;8.980;2022-09-03T08:36:38;4.23;;;2.30;;
5167;SDS011;2603;48.918;8.980;2022-09-03T08:39:06;4.60;;;2.37;;
5167;SDS011;2603;48.918;8.980;2022-09-03T08:41:38;3.63;;;2.13;;
5167;SDS011;2603;48.918;8.980;2022-09-03T08:44:14;4.47;;;2.33;;
5167;SDS011;2603;48.918;8.980;2022-09-03T08:46:47;3.93;;;1.80;;
5167;SDS011;2603;48.918;8.980;2022-09-03T08:49:20;5.43;;;2.47;;
5167;SDS011;2603;48.918;8.980;2022-09-03T08:51:49;4.00;;;2.47;;
5167;SDS011;2603;48.918;8.980;2022-09-03T08:54:17;7.30;;;2.23;;
5167;SDS011;2603;48.918;8.980;2022-09-03T08:56:45;3.93;;;1.87;;
5167;SDS011;2603;48.918;8.980;2022-09-03T08:59:12;10.50;;;2.03;;
5167;SDS011;2603;48.918;8.980;2022-09-03T09:01:42;8.13;;;2.37;;
5167;SDS011;2603;48.918;8.980;2022-09-03T09:04:17;4.73;;;2.00;;
5167;SDS011;2603;48.918;8.980;2022-09-03T09:06:54;10.30;;;2.37;;
5167;SDS011;2603;48.918;8.980;2022-09-03T09:09:26;5.80;;;2.20;;
5167;SDS011;2603;48.918;8.980;2022-09-03T09:12:03;5.43;;;2.13;;
5167;SDS011;2603;48.918;8.980;2022-09-03T09:14:38;4.73;;;2.67;;
5167;SDS011;2603;48.918;8.980;2022-09-03T09:17:14;10.27;;;2.40;;
5167;SDS011;2603;48.918;8.980;2022-09-03T09:19:49;5.03;;;2.20;;
5167;SDS011;2603;48.918;8.980;2022-09-03T09:22:23;8.63;;;2.83;;
5167;SDS011;2603;48.918;8.980;2022-09-03T09:24:52;5.10;;;2.57;;
5167;SDS011;2603;48.918;8.980;2022-09-03T09:27:20;8.00;;;2.77;;
5167;SDS011;2603;48.918;8.980;2022-09-03T09:29:47;11.20;;;2.77;;
5167;SDS011;2603;48.918;8.980;2022-09-03T09:32:15;7.47;;;2.70;;
5167;SDS011;2603;48.918;8.980;2022-09-03T09:34:43;13.27;;;3.07;;
5167;SDS011;2603;48.918;8.980;2022-09-03T09:37:12;9.03;;;2.53;;
5167;SDS011;2603;48.918;8.980;2022-09-03T09:39:40;11.23;;;2.17;;
5167;SDS011;2603;48.918;8.980;2022-09-03T09:42:20;4.70;;;2.40;;
5167;SDS011;2603;48.918;8.980;2022-09-03T09:44:47;4.70;;;2.40;;
5167;SDS011;2603;48.918;8.980;2022-09-03T09:47:15;8.47;;;2.70;;
5167;SDS011;2603;48.918;8.980;2022-09-03T09:49:50;4.10;;;2.10;;
5167;SDS011;2603;48.918;8.980;2022-09-03T09:52:19;4.40;;;1.60;;
5167;SDS011;2603;48.918;8.980;2022-09-03T09:54:49;4.53;;;2.20;;
5167;SDS011;2603;48.918;8.980;2022-09-03T09:57:20;4.70;;;2.13;;
5167;SDS011;2603;48.918;8.980;2022-09-03T09:59:48;2.40;;;1.80;;
5167;SDS011;2603;48.918;8.980;2022-09-03T10:02:18;3.07;;;2.03;;
5167;SDS011;2603;48.918;8.980;2022-09-03T10:04:46;4.30;;;2.50;;
5167;SDS011;2603;48.918;8.980;2022-09-03T10:07:19;4.33;;;1.90;;
5167;SDS011;2603;48.918;8.980;2022-09-03T10:09:56;4.03;;;1.87;;
5167;SDS011;2603;48.918;8.980;2022-09-03T10:12:29;5.20;;;2.20;;
5167;SDS011;2603;48.918;8.980;2022-09-03T10:15:02;3.47;;;2.27;;
5167;SDS011;2603;48.918;8.980;2022-09-03T10:17:42;4.67;;;1.80;;
5167;SDS011;2603;48.918;8.980;2022-09-03T10:20:14;4.80;;;2.20;;
5167;SDS011;2603;48.918;8.980;2022-09-03T10:22:58;4.13;;;2.10;;
5167;SDS011;2603;48.918;8.980;2022-09-03T10:25:29;5.23;;;2.57;;
5167;SDS011;2603;48.918;8.980;2022-09-03T10:28:03;4.10;;;2.17;;
5167;SDS011;2603;48.918;8.980;2022-09-03T10:30:32;5.13;;;2.27;;
5167;SDS011;2603;48.918;8.980;2022-09-03T10:33:13;2.37;;;1.73;;
5167;SDS011;2603;48.918;8.980;2022-09-03T10:35:44;6.03;;;2.30;;
5167;SDS011;2603;48.918;8.980;2022-09-03T10:38:19;2.80;;;1.93;;
5167;SDS011;2603;48.918;8.980;2022-09-03T10:40:54;5.60;;;2.47;;
5167;SDS011;2603;48.918;8.980;2022-09-03T10:43:29;8.83;;;2.30;;
5167;SDS011;2603;48.918;8.980;2022-09-03T10:46:14;5.30;;;2.10;;
5167;SDS011;2603;48.918;8.980;2022-09-03T10:51:45;3.70;;;2.40;;
5167;SDS011;2603;48.918;8.980;2022-09-03T10:54:20;3.03;;;1.93;;
5167;SDS011;2603;48.918;8.980;2022-09-03T10:57:00;2.97;;;2.00;;
5167;SDS011;2603;48.918;8.980;2022-09-03T10:59:32;4.23;;;2.10;;
5167;SDS011;2603;48.918;8.980;2022-09-03T11:02:14;2.50;;;1.87;;
5167;SDS011;2603;48.918;8.980;2022-09-03T11:04:50;2.30;;;2.00;;
5167;SDS011;2603;48.918;8.980;2022-09-03T11:07:21;3.80;;;2.07;;
5167;SDS011;2603;48.918;8.980;2022-09-03T11:09:54;5.03;;;2.33;;
5167;SDS011;2603;48.918;8.980;2022-09-03T11:12:28;3.00;;;1.40;;
5167;SDS011;2603;48.918;8.980;2022-09-03T11:14:58;7.23;;;2.10;;
5167;SDS011;2603;48.918;8.980;2022-09-03T11:17:28;4.10;;;1.67;;
5167;SDS011;2603;48.918;8.980;2022-09-03T11:19:58;4.50;;;2.13;;
5167;SDS011;2603;48.918;8.980;2022-09-03T11:22:31;2.50;;;1.90;;
5167;SDS011;2603;48.918;8.980;2022-09-03T11:25:00;2.90;;;2.03;;
5167;SDS011;2603;48.918;8.980;2022-09-03T11:27:32;3.97;;;1.90;;
5167;SDS011;2603;48.918;8.980;2022-09-03T11:30:21;5.37;;;2.00;;
5167;SDS011;2603;48.918;8.980;2022-09-03T11:32:51;2.80;;;1.53;;
5167;SDS011;2603;48.918;8.980;2022-09-03T11:35:24;3.93;;;1.73;;
5167;SDS011;2603;48.918;8.980;2022-09-03T11:37:53;4.40;;;2.03;;
5167;SDS011;2603;48.918;8.980;2022-09-03T11:40:28;3.20;;;1.80;;
5167;SDS011;2603;48.918;8.980;2022-09-03T11:43:05;4.37;;;1.90;;
5167;SDS011;2603;48.918;8.980;2022-09-03T11:45:34;4.40;;;1.73;;
5167;SDS011;2603;48.918;8.980;2022-09-03T11:48:02;3.33;;;1.80;;
5167;SDS011;2603;48.918;8.980;2022-09-03T11:50:50;4.93;;;1.93;;
5167;SDS011;2603;48.918;8.980;2022-09-03T11:53:22;2.93;;;2.10;;
5167;SDS011;2603;48.918;8.980;2022-09-03T11:55:54;7.23;;;1.70;;
5167;SDS011;2603;48.918;8.980;2022-09-03T11:58:23;8.73;;;2.20;;
5167;SDS011;2603;48.918;8.980;2022-09-03T12:00:52;3.27;;;1.90;;
5167;SDS011;2603;48.918;8.980;2022-09-03T12:03:22;6.20;;;1.80;;
5167;SDS011;2603;48.918;8.980;2022-09-03T12:05:53;2.70;;;1.83;;
5167;SDS011;2603;48.918;8.980;2022-09-03T12:08:38;2.90;;;1.90;;
5167;SDS011;2603;48.918;8.980;2022-09-03T12:11:19;6.00;;;1.93;;
5167;SDS011;2603;48.918;8.980;2022-09-03T12:13:53;15.83;;;2.27;;
5167;SDS011;2603;48.918;8.980;2022-09-03T12:16:38;3.10;;;1.60;;
5167;SDS011;2603;48.918;8.980;2022-09-03T12:19:12;2.90;;;1.97;;
5167;SDS011;2603;48.918;8.980;2022-09-03T12:21:47;6.07;;;2.37;;
5167;SDS011;2603;48.918;8.980;2022-09-03T12:24:14;8.53;;;2.70;;
5167;SDS011;2603;48.918;8.980;2022-09-03T12:26:43;10.20;;;2.10;;
5167;SDS011;2603;48.918;8.980;2022-09-03T12:29:21;5.13;;;2.60;;
5167;SDS011;2603;48.918;8.980;2022-09-03T12:31:52;6.90;;;2.00;;
5167;SDS011;2603;48.918;8.980;2022-09-03T12:34:22;5.10;;;2.20;;
5167;SDS011;2603;48.918;8.980;2022-09-03T12:36:50;8.13;;;2.80;;
5167;SDS011;2603;48.918;8.980;2022-09-03T12:39:18;5.73;;;2.43;;
5167;SDS011;2603;48.918;8.980;2022-09-03T12:42:00;11.90;;;4.17;;
5167;SDS011;2603;48.918;8.980;2022-09-03T12:44:29;15.90;;;4.50;;
5167;SDS011;2603;48.918;8.980;2022-09-03T12:47:00;12.80;;;4.30;;
5167;SDS011;2603;48.918;8.980;2022-09-03T12:49:32;8.57;;;4.27;;
5167;SDS011;2603;48.918;8.980;2022-09-03T12:52:00;9.93;;;3.90;;
5167;SDS011;2603;48.918;8.980;2022-09-03T12:54:28;7.60;;;2.67;;
5167;SDS011;2603;48.918;8.980;2022-09-03T12:56:56;14.47;;;4.00;;
5167;SDS011;2603;48.918;8.980;2022-09-03T12:59:26;6.73;;;2.87;;
5167;SDS011;2603;48.918;8.980;2022-09-03T13:01:53;5.80;;;1.27;;
5167;SDS011;2603;48.918;8.980;2022-09-03T13:04:22;3.93;;;1.70;;
5167;SDS011;2603;48.918;8.980;2022-09-03T13:06:52;3.60;;;1.80;;
5167;SDS011;2603;48.918;8.980;2022-09-03T13:09:21;11.30;;;2.17;;
5167;SDS011;2603;48.918;8.980;2022-09-03T13:11:50;6.50;;;1.60;;
5167;SDS011;2603;48.918;8.980;2022-09-03T13:14:19;13.63;;;1.63;;
5167;SDS011;2603;48.918;8.980;2022-09-03T13:17:06;7.20;;;1.83;;
5167;SDS011;2603;48.918;8.980;2022-09-03T13:19:46;2.77;;;0.90;;
5167;SDS011;2603;48.918;8.980;2022-09-03T13:22:24;2.60;;;1.10;;
5167;SDS011;2603;48.918;8.980;2022-09-03T13:27:51;4.10;;;1.20;;
5167;SDS011;2603;48.918;8.980;2022-09-03T13:30:22;10.83;;;0.90;;
5167;SDS011;2603;48.918;8.980;2022-09-03T13:33:00;2.27;;;1.10;;
5167;SDS011;2603;48.918;8.980;2022-09-03T13:35:29;2.43;;;1.00;;
5167;SDS011;2603;48.918;8.980;2022-09-03T13:38:02;2.40;;;0.90;;
5167;SDS011;2603;48.918;8.980;2022-09-03T13:40:34;2.50;;;1.00;;
5167;SDS011;2603;48.918;8.980;2022-09-03T13:43:02;2.00;;;0.90;;
5167;SDS011;2603;48.918;8.980;2022-09-03T13:45:34;1.80;;;0.97;;
5167;SDS011;2603;48.918;8.980;2022-09-03T13:48:07;4.93;;;0.90;;
5167;SDS011;2603;48.918;8.980;2022-09-03T13:50:57;3.57;;;1.07;;
5167;SDS011;2603;48.918;8.980;2022-09-03T13:53:30;4.57;;;1.43;;
5167;SDS011;2603;48.918;8.980;2022-09-03T13:56:04;2.70;;;1.10;;
5167;SDS011;2603;48.918;8.980;2022-09-03T13:58:40;6.93;;;1.37;;
5167;SDS011;2603;48.918;8.980;2022-09-03T14:01:12;2.03;;;1.13;;
5167;SDS011;2603;48.918;8.980;2022-09-03T14:03:47;2.27;;;1.27;;
5167;SDS011;2603;48.918;8.980;2022-09-03T14:06:28;4.07;;;1.23;;
5167;SDS011;2603;48.918;8.980;2022-09-03T14:09:05;2.20;;;1.50;;
5167;SDS011;2603;48.918;8.980;2022-09-03T14:11:40;6.13;;;1.70;;
5167;SDS011;2603;48.918;8.980;2022-09-03T14:14:15;7.03;;;1.43;;
5167;SDS011;2603;48.918;8.980;2022-09-03T14:16:54;2.40;;;1.47;;
5167;SDS011;2603;48.918;8.980;2022-09-03T14:19:31;2.67;;;1.20;;
5167;SDS011;2603;48.918;8.980;2022-09-03T14:22:00;3.20;;;1.37;;
5167;SDS011;2603;48.918;8.980;2022-09-03T14:24:33;2.73;;;1.47;;
5167;SDS011;2603;48.918;8.980;2022-09-03T14:27:06;3.13;;;1.73;;
5167;SDS011;2603;48.918;8.980;2022-09-03T14:29:34;2.70;;;1.50;;
5167;SDS011;2603;48.918;8.980;2022-09-03T14:32:16;14.23;;;1.37;;
5167;SDS011;2603;48.918;8.980;2022-09-03T14:35:06;3.27;;;1.50;;
5167;SDS011;2603;48.918;8.980;2022-09-03T14:37:48;3.07;;;1.57;;
5167;SDS011;2603;48.918;8.980;2022-09-03T14:40:23;2.53;;;1.30;;
5167;SDS011;2603;48.918;8.980;2022-09-03T14:42:56;3.43;;;1.57;;
5167;SDS011;2603;48.918;8.980;2022-09-03T14:45:41;3.83;;;1.30;;
5167;SDS011;2603;48.918;8.980;2022-09-03T14:48:28;4.07;;;1.83;;
5167;SDS011;2603;48.918;8.980;2022-09-03T14:51:21;5.00;;;2.00;;
5167;SDS011;2603;48.918;8.980;2022-09-03T14:54:01;3.33;;;1.57;;
5167;SDS011;2603;48.918;8.980;2022-09-03T14:56:39;4.93;;;1.97;;
5167;SDS011;2603;48.918;8.980;2022-09-03T14:59:16;5.07;;;2.50;;
5167;SDS011;2603;48.918;8.980;2022-09-03T15:01:54;6.50;;;1.90;;
5167;SDS011;2603;48.918;8.980;2022-09-03T15:04:55;4.07;;;2.17;;
5167;SDS011;2603;48.918;8.980;2022-09-03T15:07:32;10.03;;;2.10;;
5167;SDS011;2603;48.918;8.980;2022-09-03T15:10:04;7.33;;;2.50;;
5167;SDS011;2603;48.918;8.980;2022-09-03T15:12:38;4.70;;;1.90;;
5167;SDS011;2603;48.918;8.980;2022-09-03T15:15:07;3.60;;;2.50;;
5167;SDS011;2603;48.918;8.980;2022-09-03T15:17:50;4.00;;;1.90;;
5167;SDS011;2603;48.918;8.980;2022-09-03T15:20:25;7.30;;;2.23;;
5167;SDS011;2603;48.918;8.980;2022-09-03T15:28:58;10.97;;;4.20;;
5167;SDS011;2603;48.918;8.980;2022-09-03T15:31:36;7.47;;;2.80;;
5167;SDS011;2603;48.918;8.980;2022-09-03T15:34:12;9.90;;;2.57;;
5167;SDS011;2603;48.918;8.980;2022-09-03T15:36:48;3.03;;;1.83;;
5167;SDS011;2603;48.918;8.980;2022-09-03T15:39:21;7.50;;;2.07;;
5167;SDS011;2603;48.918;8.980;2022-09-03T15:41:49;3.13;;;2.17;;
5167;SDS011;2603;48.918;8.980;2022-09-03T15:44:17;6.20;;;3.07;;
5167;SDS011;2603;48.918;8.980;2022-09-03T15:46:48;5.30;;;2.20;;
5167;SDS011;2603;48.918;8.980;2022-09-03T15:49:20;4.60;;;2.57;;
5167;SDS011;2603;48.918;8.980;2022-09-03T15:52:01;3.83;;;2.13;;